SVKL weather

Las Clavellinas Airport
Las Clavellinasmer, Merida, Venezuela

Public forecast

Using degrees Celsius for public forecast. Weather courtesy of forecast.io.

METAR (pilot weather report)

Report is more than 6 hours old.

Closest report is Hacienda San José Airport, 9.2 nm (17.0 km) NNW. Retrieved 2009/08/18 12:00 UTC (10 years ago):

SVSS 181200Z 00000KT 5000 +HZ BKN030 XX/XX Q1014

TAF (pilot weather forecast)

Forecast is more than 6 hours old.

Closest forecast is La Chinita International Airport, 86.4 nm (160.0 km) NNW. Retrieved 2019/04/23 18:00 UTC (8 hours ago):

TAF SVMC 231600Z 2318/2418 36004KT 9999 SCT016 TX35/18Z TN25/08Z BECMG 2318/2322 11005KT 8000 -DZ BKN016